Palanga, Lithuania

5:28 AM EEST on September 22, 2014 (GMT +0300)
Klaipeda Tauralaukis | Change Station
CLOSE
Current Station
Personal Weather Station
Location: Klaipeda, KLAIPEDA
Elevation: 7 ft
Nearby Weather Stations

Elev 7 ft 55.75 °N, 21.14 °E | Updated 9 minutes ago

Rain
Rain
61.3 °F
Feels Like 61.3 °F
N
0.9
Wind Variable Wind from West
Gusts 0.0 mph

Today
High -- | Low -- °F
--% Chance of Precip.
Yesterday
High -- | Low -- °F
Precip. -- in
7:20 AM 7:35 PM
Waning Crescent, 4% visible
Pressure 29.50 in
Visibility 0.4 miles
Clouds Few 1500 ft
Dew Point 58 °F
Humidity 89%
Rainfall 0.24 in
Snow Depth Not available.
UV 0.0 out of 12
Pollen Not available.
Air Quality Not available.
Flu Activity Not available.
METAR EVLA 220220Z AUTO VRB01KT 0700 R06/P2000N R24/0700 FG FEW015 12/12 Q0999

More Conditions Fewer Conditions

Pressure 29.50 in
Visibility 0.4 miles
Clouds Few 1500 ft
Dew Point 58 °F
Humidity 89%
Rainfall 0.24 in
Snow Depth Not available.
UV 0.0 out of 12
Pollen Not available.
Air Quality Not available.
Flu Activity Not available.
METAR EVLA 220220Z AUTO VRB01KT 0700 R06/P2000N R24/0700 FG FEW015 12/12 Q0999

More Conditions Fewer Conditions

10-Day Weather Forecast

Almanac

Astronomy

Sep. 22, 2014 Rise Set
Actual Time 7:20 AM EEST 7:35 PM EEST
Civil Twilight 6:43 AM EEST 8:12 PM EEST
Nautical Twilight 5:58 AM EEST 8:56 PM EEST
Astronomical Twilight 5:11 AM EEST 9:43 PM EEST
Moon 5:18 AM EEST 6:42 PM EEST
Length of Visible Light 13h 29m
Length of Day
12h 14m
Tomorrow will be 4m 36s shorter.
Waning Crescent, 4% of the Moon is Illuminated
Sep 21
Waning Crescent
Sep 24
New
Oct 1
First Quarter
Oct 8
Full
Oct 15
Last Quarter

Yesterday's Extremes

Country Highs Country Lows

Community

WunderPhotos

Upload Photos

1,755,364 photos uploaded!

WunderBlogs® & News

Nearby

Snow Depth

Not available.

Earthquake Activity

City Distance Mag. Time & Date
No recent earthquake activity has been reported nearby.
Minimum magnitude displayed is 2.5.

Coastal Water Temperatures

Place Temperature
No Stations Reporting

Nearby Weather Stations